sensor_id;sensor_type;location;lat;lon;timestamp;temperature;humidity
5392;DHT22;2719;53.624;9.786;2022-08-21T00:01:16;17.40;99.90
5392;DHT22;2719;53.624;9.786;2022-08-21T00:03:43;17.40;99.90
5392;DHT22;2719;53.624;9.786;2022-08-21T00:06:11;17.40;99.90
5392;DHT22;2719;53.624;9.786;2022-08-21T00:08:37;17.40;99.90
5392;DHT22;2719;53.624;9.786;2022-08-21T00:11:05;17.30;99.90
5392;DHT22;2719;53.624;9.786;2022-08-21T00:13:31;17.30;99.90
5392;DHT22;2719;53.624;9.786;2022-08-21T00:15:59;17.30;99.90
5392;DHT22;2719;53.624;9.786;2022-08-21T00:18:26;17.30;99.90
5392;DHT22;2719;53.624;9.786;2022-08-21T00:20:52;17.30;99.90
5392;DHT22;2719;53.624;9.786;2022-08-21T00:23:21;17.20;99.90
5392;DHT22;2719;53.624;9.786;2022-08-21T00:25:48;17.20;99.90
5392;DHT22;2719;53.624;9.786;2022-08-21T00:28:15;17.10;99.90
5392;DHT22;2719;53.624;9.786;2022-08-21T00:30:43;17.10;99.90
5392;DHT22;2719;53.624;9.786;2022-08-21T00:33:10;17.10;99.90
5392;DHT22;2719;53.624;9.786;2022-08-21T00:35:39;17.10;99.90
5392;DHT22;2719;53.624;9.786;2022-08-21T00:38:07;17.00;99.90
5392;DHT22;2719;53.624;9.786;2022-08-21T00:40:38;17.00;99.90
5392;DHT22;2719;53.624;9.786;2022-08-21T00:43:08;17.10;99.90
5392;DHT22;2719;53.624;9.786;2022-08-21T00:45:35;17.00;99.90
5392;DHT22;2719;53.624;9.786;2022-08-21T00:48:02;17.00;99.90
5392;DHT22;2719;53.624;9.786;2022-08-21T00:50:33;17.00;99.90
5392;DHT22;2719;53.624;9.786;2022-08-21T00:53:02;17.00;99.90
5392;DHT22;2719;53.624;9.786;2022-08-21T00:55:30;17.00;99.90
5392;DHT22;2719;53.624;9.786;2022-08-21T00:58:03;17.00;99.90
5392;DHT22;2719;53.624;9.786;2022-08-21T01:00:33;17.00;99.90
5392;DHT22;2719;53.624;9.786;2022-08-21T01:03:02;17.00;99.90
5392;DHT22;2719;53.624;9.786;2022-08-21T01:05:31;17.00;99.90
5392;DHT22;2719;53.624;9.786;2022-08-21T01:07:58;16.90;99.90
5392;DHT22;2719;53.624;9.786;2022-08-21T01:10:26;16.90;99.90
5392;DHT22;2719;53.624;9.786;2022-08-21T01:12:53;16.90;99.90
5392;DHT22;2719;53.624;9.786;2022-08-21T01:15:26;16.90;99.90
5392;DHT22;2719;53.624;9.786;2022-08-21T01:17:54;16.90;99.90
5392;DHT22;2719;53.624;9.786;2022-08-21T01:20:20;16.80;99.90
5392;DHT22;2719;53.624;9.786;2022-08-21T01:22:48;16.80;99.90
5392;DHT22;2719;53.624;9.786;2022-08-21T01:25:16;16.80;99.90
5392;DHT22;2719;53.624;9.786;2022-08-21T01:27:45;16.80;99.90
5392;DHT22;2719;53.624;9.786;2022-08-21T01:30:14;16.80;99.90
5392;DHT22;2719;53.624;9.786;2022-08-21T01:32:42;16.70;99.90
5392;DHT22;2719;53.624;9.786;2022-08-21T01:35:10;16.70;99.90
5392;DHT22;2719;53.624;9.786;2022-08-21T01:37:37;16.70;99.90
5392;DHT22;2719;53.624;9.786;2022-08-21T01:40:06;16.70;99.90
5392;DHT22;2719;53.624;9.786;2022-08-21T01:42:33;16.70;99.90
5392;DHT22;2719;53.624;9.786;2022-08-21T01:44:59;16.70;99.90
5392;DHT22;2719;53.624;9.786;2022-08-21T01:47:26;16.70;99.90
5392;DHT22;2719;53.624;9.786;2022-08-21T01:49:53;16.70;99.90
5392;DHT22;2719;53.624;9.786;2022-08-21T01:52:20;16.80;99.90
5392;DHT22;2719;53.624;9.786;2022-08-21T01:54:47;16.80;99.90
5392;DHT22;2719;53.624;9.786;2022-08-21T01:57:15;16.80;99.90
5392;DHT22;2719;53.624;9.786;2022-08-21T01:59:41;16.90;99.90
5392;DHT22;2719;53.624;9.786;2022-08-21T02:02:08;16.80;99.90
5392;DHT22;2719;53.624;9.786;2022-08-21T02:04:35;16.80;99.90
5392;DHT22;2719;53.624;9.786;2022-08-21T02:07:02;16.80;99.90
5392;DHT22;2719;53.624;9.786;2022-08-21T02:09:29;16.80;99.90
5392;DHT22;2719;53.624;9.786;2022-08-21T02:11:56;16.70;99.90
5392;DHT22;2719;53.624;9.786;2022-08-21T02:14:24;16.70;99.90
5392;DHT22;2719;53.624;9.786;2022-08-21T02:16:51;16.70;99.90
5392;DHT22;2719;53.624;9.786;2022-08-21T02:19:18;16.70;99.90
5392;DHT22;2719;53.624;9.786;2022-08-21T02:21:45;16.60;99.90
5392;DHT22;2719;53.624;9.786;2022-08-21T02:24:11;16.60;99.90
5392;DHT22;2719;53.624;9.786;2022-08-21T02:26:38;16.60;99.90
5392;DHT22;2719;53.624;9.786;2022-08-21T02:29:05;16.60;99.90
5392;DHT22;2719;53.624;9.786;2022-08-21T02:31:33;16.60;99.90
5392;DHT22;2719;53.624;9.786;2022-08-21T02:34:00;16.60;99.90
5392;DHT22;2719;53.624;9.786;2022-08-21T02:36:27;16.60;99.90
5392;DHT22;2719;53.624;9.786;2022-08-21T02:38:53;16.60;99.90
5392;DHT22;2719;53.624;9.786;2022-08-21T02:41:21;16.50;99.90
5392;DHT22;2719;53.624;9.786;2022-08-21T02:43:49;16.50;99.90
5392;DHT22;2719;53.624;9.786;2022-08-21T02:46:18;16.60;99.90
5392;DHT22;2719;53.624;9.786;2022-08-21T02:48:46;16.60;99.90
5392;DHT22;2719;53.624;9.786;2022-08-21T02:51:15;16.50;99.90
5392;DHT22;2719;53.624;9.786;2022-08-21T02:53:44;16.50;99.90
5392;DHT22;2719;53.624;9.786;2022-08-21T02:56:12;16.50;99.90
5392;DHT22;2719;53.624;9.786;2022-08-21T02:58:42;16.50;99.90
5392;DHT22;2719;53.624;9.786;2022-08-21T03:01:09;16.40;99.90
5392;DHT22;2719;53.624;9.786;2022-08-21T03:03:37;16.40;99.90
5392;DHT22;2719;53.624;9.786;2022-08-21T03:06:07;16.40;99.90
5392;DHT22;2719;53.624;9.786;2022-08-21T03:08:34;16.40;99.90
5392;DHT22;2719;53.624;9.786;2022-08-21T03:11:01;16.40;99.90
5392;DHT22;2719;53.624;9.786;2022-08-21T03:13:28;16.30;99.90
5392;DHT22;2719;53.624;9.786;2022-08-21T03:15:55;16.30;99.90
5392;DHT22;2719;53.624;9.786;2022-08-21T03:18:23;16.30;99.90
5392;DHT22;2719;53.624;9.786;2022-08-21T03:20:50;16.30;99.90
5392;DHT22;2719;53.624;9.786;2022-08-21T03:23:18;16.20;99.90
5392;DHT22;2719;53.624;9.786;2022-08-21T03:25:46;16.20;99.90
5392;DHT22;2719;53.624;9.786;2022-08-21T03:28:15;16.20;99.90
5392;DHT22;2719;53.624;9.786;2022-08-21T03:30:43;16.30;99.90
5392;DHT22;2719;53.624;9.786;2022-08-21T03:33:10;16.20;99.90
5392;DHT22;2719;53.624;9.786;2022-08-21T03:35:37;16.30;99.90
5392;DHT22;2719;53.624;9.786;2022-08-21T03:38:03;16.20;99.90
5392;DHT22;2719;53.624;9.786;2022-08-21T03:40:31;16.20;99.90
5392;DHT22;2719;53.624;9.786;2022-08-21T03:42:58;16.10;99.90
5392;DHT22;2719;53.624;9.786;2022-08-21T03:45:25;16.10;99.90
5392;DHT22;2719;53.624;9.786;2022-08-21T03:47:53;16.20;99.90
5392;DHT22;2719;53.624;9.786;2022-08-21T03:50:21;16.20;99.90
5392;DHT22;2719;53.624;9.786;2022-08-21T03:52:48;16.10;99.90
5392;DHT22;2719;53.624;9.786;2022-08-21T03:55:15;16.00;99.90
5392;DHT22;2719;53.624;9.786;2022-08-21T03:57:43;16.10;99.90
5392;DHT22;2719;53.624;9.786;2022-08-21T04:00:11;16.10;99.90
5392;DHT22;2719;53.624;9.786;2022-08-21T04:02:38;16.10;99.90
5392;DHT22;2719;53.624;9.786;2022-08-21T04:05:07;16.10;99.90
5392;DHT22;2719;53.624;9.786;2022-08-21T04:07:34;16.10;99.90
5392;DHT22;2719;53.624;9.786;2022-08-21T04:10:01;16.00;99.90
5392;DHT22;2719;53.624;9.786;2022-08-21T04:12:28;16.00;99.90
5392;DHT22;2719;53.624;9.786;2022-08-21T04:14:56;16.00;99.90
5392;DHT22;2719;53.624;9.786;2022-08-21T04:17:23;16.00;99.90
5392;DHT22;2719;53.624;9.786;2022-08-21T04:19:50;16.10;99.90
5392;DHT22;2719;53.624;9.786;2022-08-21T04:22:16;16.00;99.90
5392;DHT22;2719;53.624;9.786;2022-08-21T04:24:43;16.00;99.90
5392;DHT22;2719;53.624;9.786;2022-08-21T04:27:10;16.00;99.90
5392;DHT22;2719;53.624;9.786;2022-08-21T04:29:36;16.00;99.90
5392;DHT22;2719;53.624;9.786;2022-08-21T04:32:05;16.00;99.90
5392;DHT22;2719;53.624;9.786;2022-08-21T04:34:32;16.00;99.90
5392;DHT22;2719;53.624;9.786;2022-08-21T04:36:58;16.10;99.90
5392;DHT22;2719;53.624;9.786;2022-08-21T04:39:25;16.10;99.90
5392;DHT22;2719;53.624;9.786;2022-08-21T04:41:51;16.10;99.90
5392;DHT22;2719;53.624;9.786;2022-08-21T04:44:18;16.20;99.90
5392;DHT22;2719;53.624;9.786;2022-08-21T04:46:45;16.20;99.90
5392;DHT22;2719;53.624;9.786;2022-08-21T04:49:13;16.20;99.90
5392;DHT22;2719;53.624;9.786;2022-08-21T04:51:39;16.10;99.90
5392;DHT22;2719;53.624;9.786;2022-08-21T04:54:10;16.10;99.90
5392;DHT22;2719;53.624;9.786;2022-08-21T04:56:41;16.10;99.90
5392;DHT22;2719;53.624;9.786;2022-08-21T04:59:12;16.10;99.90
5392;DHT22;2719;53.624;9.786;2022-08-21T05:01:40;16.20;99.90
5392;DHT22;2719;53.624;9.786;2022-08-21T05:04:09;16.30;99.90
5392;DHT22;2719;53.624;9.786;2022-08-21T05:06:41;16.30;99.90
5392;DHT22;2719;53.624;9.786;2022-08-21T05:09:09;16.30;99.90
5392;DHT22;2719;53.624;9.786;2022-08-21T05:11:38;16.40;99.90
5392;DHT22;2719;53.624;9.786;2022-08-21T05:14:05;16.40;99.90
5392;DHT22;2719;53.624;9.786;2022-08-21T05:16:32;16.40;99.90
5392;DHT22;2719;53.624;9.786;2022-08-21T05:18:59;16.40;99.90
5392;DHT22;2719;53.624;9.786;2022-08-21T05:21:25;16.50;99.90
5392;DHT22;2719;53.624;9.786;2022-08-21T05:23:53;16.50;99.90
5392;DHT22;2719;53.624;9.786;2022-08-21T05:26:20;16.50;99.90
5392;DHT22;2719;53.624;9.786;2022-08-21T05:28:47;16.40;99.90
5392;DHT22;2719;53.624;9.786;2022-08-21T05:31:13;16.50;99.90
5392;DHT22;2719;53.624;9.786;2022-08-21T05:33:40;16.60;99.90
5392;DHT22;2719;53.624;9.786;2022-08-21T05:36:06;16.60;99.90
5392;DHT22;2719;53.624;9.786;2022-08-21T05:38:33;16.60;99.90
5392;DHT22;2719;53.624;9.786;2022-08-21T05:41:01;16.70;99.90
5392;DHT22;2719;53.624;9.786;2022-08-21T05:43:28;16.80;99.90
5392;DHT22;2719;53.624;9.786;2022-08-21T05:45:54;16.90;99.90
5392;DHT22;2719;53.624;9.786;2022-08-21T05:48:23;16.90;99.90
5392;DHT22;2719;53.624;9.786;2022-08-21T05:50:51;17.00;99.90
5392;DHT22;2719;53.624;9.786;2022-08-21T05:53:20;17.10;99.90
5392;DHT22;2719;53.624;9.786;2022-08-21T05:55:49;17.10;99.90
5392;DHT22;2719;53.624;9.786;2022-08-21T05:58:20;17.10;99.90
5392;DHT22;2719;53.624;9.786;2022-08-21T06:00:50;17.20;99.90
5392;DHT22;2719;53.624;9.786;2022-08-21T06:03:19;17.20;99.90
5392;DHT22;2719;53.624;9.786;2022-08-21T06:05:46;17.30;99.90
5392;DHT22;2719;53.624;9.786;2022-08-21T06:08:13;17.30;99.90
5392;DHT22;2719;53.624;9.786;2022-08-21T06:10:40;17.30;99.90
5392;DHT22;2719;53.624;9.786;2022-08-21T06:13:07;17.40;99.90
5392;DHT22;2719;53.624;9.786;2022-08-21T06:15:35;17.30;99.90
5392;DHT22;2719;53.624;9.786;2022-08-21T06:18:02;17.40;99.90
5392;DHT22;2719;53.624;9.786;2022-08-21T06:20:29;17.40;99.90
5392;DHT22;2719;53.624;9.786;2022-08-21T06:22:55;17.40;99.90
5392;DHT22;2719;53.624;9.786;2022-08-21T06:25:22;17.40;99.90
5392;DHT22;2719;53.624;9.786;2022-08-21T06:27:49;17.40;99.90
5392;DHT22;2719;53.624;9.786;2022-08-21T06:30:16;17.40;99.90
5392;DHT22;2719;53.624;9.786;2022-08-21T06:32:44;17.50;99.90
5392;DHT22;2719;53.624;9.786;2022-08-21T06:35:11;17.50;99.90
5392;DHT22;2719;53.624;9.786;2022-08-21T06:37:38;17.70;99.90
5392;DHT22;2719;53.624;9.786;2022-08-21T06:40:05;17.80;99.90
5392;DHT22;2719;53.624;9.786;2022-08-21T06:42:32;17.80;99.90
5392;DHT22;2719;53.624;9.786;2022-08-21T06:44:59;18.00;99.90
5392;DHT22;2719;53.624;9.786;2022-08-21T06:47:25;18.10;99.90
5392;DHT22;2719;53.624;9.786;2022-08-21T06:49:53;18.20;99.90
5392;DHT22;2719;53.624;9.786;2022-08-21T06:52:20;18.30;99.90
5392;DHT22;2719;53.624;9.786;2022-08-21T06:54:47;18.30;99.90
5392;DHT22;2719;53.624;9.786;2022-08-21T06:57:13;18.40;99.90
5392;DHT22;2719;53.624;9.786;2022-08-21T06:59:40;18.50;99.90
5392;DHT22;2719;53.624;9.786;2022-08-21T07:02:07;18.60;99.90
5392;DHT22;2719;53.624;9.786;2022-08-21T07:04:33;18.70;99.90
5392;DHT22;2719;53.624;9.786;2022-08-21T07:07:01;18.80;99.90
5392;DHT22;2719;53.624;9.786;2022-08-21T07:09:28;18.90;99.90
5392;DHT22;2719;53.624;9.786;2022-08-21T07:11:55;19.00;99.90
5392;DHT22;2719;53.624;9.786;2022-08-21T07:14:22;19.10;99.90
5392;DHT22;2719;53.624;9.786;2022-08-21T07:16:49;19.10;99.90
5392;DHT22;2719;53.624;9.786;2022-08-21T07:19:16;19.00;99.90
5392;DHT22;2719;53.624;9.786;2022-08-21T07:21:43;19.10;99.90
5392;DHT22;2719;53.624;9.786;2022-08-21T07:24:11;19.20;99.90
5392;DHT22;2719;53.624;9.786;2022-08-21T07:26:39;19.30;99.90
5392;DHT22;2719;53.624;9.786;2022-08-21T07:29:06;19.40;99.90
5392;DHT22;2719;53.624;9.786;2022-08-21T07:31:32;19.50;99.90
5392;DHT22;2719;53.624;9.786;2022-08-21T07:33:59;19.50;99.90
5392;DHT22;2719;53.624;9.786;2022-08-21T07:36:25;19.50;99.90
5392;DHT22;2719;53.624;9.786;2022-08-21T07:38:52;19.50;99.90
5392;DHT22;2719;53.624;9.786;2022-08-21T07:41:22;19.50;99.90
5392;DHT22;2719;53.624;9.786;2022-08-21T07:43:48;19.50;99.90
5392;DHT22;2719;53.624;9.786;2022-08-21T07:46:15;19.60;99.90
5392;DHT22;2719;53.624;9.786;2022-08-21T07:48:42;19.60;99.90
5392;DHT22;2719;53.624;9.786;2022-08-21T07:51:11;19.60;99.90
5392;DHT22;2719;53.624;9.786;2022-08-21T07:53:39;19.60;99.90
5392;DHT22;2719;53.624;9.786;2022-08-21T07:56:07;19.60;99.90
5392;DHT22;2719;53.624;9.786;2022-08-21T07:58:37;19.60;99.90
5392;DHT22;2719;53.624;9.786;2022-08-21T08:01:05;19.70;99.90
5392;DHT22;2719;53.624;9.786;2022-08-21T08:03:32;19.70;99.90
5392;DHT22;2719;53.624;9.786;2022-08-21T08:05:58;19.70;99.90
5392;DHT22;2719;53.624;9.786;2022-08-21T08:08:25;19.60;99.90
5392;DHT22;2719;53.624;9.786;2022-08-21T08:10:53;19.70;99.90
5392;DHT22;2719;53.624;9.786;2022-08-21T08:13:22;19.70;99.90
5392;DHT22;2719;53.624;9.786;2022-08-21T08:15:50;19.70;99.90
5392;DHT22;2719;53.624;9.786;2022-08-21T08:18:17;19.70;99.90
5392;DHT22;2719;53.624;9.786;2022-08-21T08:20:44;19.70;99.90
5392;DHT22;2719;53.624;9.786;2022-08-21T08:23:10;19.70;99.90
5392;DHT22;2719;53.624;9.786;2022-08-21T08:25:37;19.70;99.90
5392;DHT22;2719;53.624;9.786;2022-08-21T08:28:05;19.80;99.90
5392;DHT22;2719;53.624;9.786;2022-08-21T08:30:32;19.90;99.90
5392;DHT22;2719;53.624;9.786;2022-08-21T08:33:00;19.80;99.90
5392;DHT22;2719;53.624;9.786;2022-08-21T08:35:27;19.90;99.90
5392;DHT22;2719;53.624;9.786;2022-08-21T08:37:54;20.00;99.90
5392;DHT22;2719;53.624;9.786;2022-08-21T08:40:27;20.10;99.90
5392;DHT22;2719;53.624;9.786;2022-08-21T08:42:55;20.10;99.90
5392;DHT22;2719;53.624;9.786;2022-08-21T08:45:22;20.20;99.90
5392;DHT22;2719;53.624;9.786;2022-08-21T08:47:55;20.20;99.90
5392;DHT22;2719;53.624;9.786;2022-08-21T08:50:38;20.20;99.90
5392;DHT22;2719;53.624;9.786;2022-08-21T08:53:11;20.20;99.90
5392;DHT22;2719;53.624;9.786;2022-08-21T08:55:41;20.20;99.90
5392;DHT22;2719;53.624;9.786;2022-08-21T08:58:10;20.30;99.90
5392;DHT22;2719;53.624;9.786;2022-08-21T09:00:38;20.30;99.90
5392;DHT22;2719;53.624;9.786;2022-08-21T09:03:05;20.40;99.90
5392;DHT22;2719;53.624;9.786;2022-08-21T09:05:41;20.50;99.90
5392;DHT22;2719;53.624;9.786;2022-08-21T09:08:35;20.60;99.90
5392;DHT22;2719;53.624;9.786;2022-08-21T09:11:13;20.70;99.90
5392;DHT22;2719;53.624;9.786;2022-08-21T09:13:49;20.70;99.90
5392;DHT22;2719;53.624;9.786;2022-08-21T09:16:21;20.70;99.90
5392;DHT22;2719;53.624;9.786;2022-08-21T09:18:57;20.70;99.90
5392;DHT22;2719;53.624;9.786;2022-08-21T09:21:35;20.80;99.90
5392;DHT22;2719;53.624;9.786;2022-08-21T09:24:16;20.80;99.90
5392;DHT22;2719;53.624;9.786;2022-08-21T09:26:50;20.80;99.90
5392;DHT22;2719;53.624;9.786;2022-08-21T09:29:24;20.80;99.90
5392;DHT22;2719;53.624;9.786;2022-08-21T09:31:55;20.80;99.90
5392;DHT22;2719;53.624;9.786;2022-08-21T09:34:27;20.90;99.90
5392;DHT22;2719;53.624;9.786;2022-08-21T09:36:56;21.00;99.90
5392;DHT22;2719;53.624;9.786;2022-08-21T09:39:25;20.90;99.90
5392;DHT22;2719;53.624;9.786;2022-08-21T09:41:56;20.90;99.90
5392;DHT22;2719;53.624;9.786;2022-08-21T09:44:26;21.00;99.90
5392;DHT22;2719;53.624;9.786;2022-08-21T09:46:53;21.00;99.90
5392;DHT22;2719;53.624;9.786;2022-08-21T09:49:27;21.10;99.90
5392;DHT22;2719;53.624;9.786;2022-08-21T09:51:56;21.10;99.90
5392;DHT22;2719;53.624;9.786;2022-08-21T09:54:27;21.20;99.90
5392;DHT22;2719;53.624;9.786;2022-08-21T09:56:57;21.30;99.90
5392;DHT22;2719;53.624;9.786;2022-08-21T09:59:43;21.40;99.90
5392;DHT22;2719;53.624;9.786;2022-08-21T10:02:24;21.40;99.90
5392;DHT22;2719;53.624;9.786;2022-08-21T10:04:54;21.50;99.90
5392;DHT22;2719;53.624;9.786;2022-08-21T10:07:24;21.40;99.90
5392;DHT22;2719;53.624;9.786;2022-08-21T10:10:04;21.40;99.90
5392;DHT22;2719;53.624;9.786;2022-08-21T10:12:42;21.50;99.90
5392;DHT22;2719;53.624;9.786;2022-08-21T10:15:18;21.50;99.90
5392;DHT22;2719;53.624;9.786;2022-08-21T10:17:55;21.60;99.90
5392;DHT22;2719;53.624;9.786;2022-08-21T10:20:27;21.70;99.90
5392;DHT22;2719;53.624;9.786;2022-08-21T10:23:03;21.70;99.90
5392;DHT22;2719;53.624;9.786;2022-08-21T10:25:37;21.70;99.90
5392;DHT22;2719;53.624;9.786;2022-08-21T10:28:13;21.80;99.90
5392;DHT22;2719;53.624;9.786;2022-08-21T10:30:49;21.90;99.90
5392;DHT22;2719;53.624;9.786;2022-08-21T10:33:28;22.00;99.90
5392;DHT22;2719;53.624;9.786;2022-08-21T10:36:02;22.10;99.90
5392;DHT22;2719;53.624;9.786;2022-08-21T10:39:02;22.10;99.90
5392;DHT22;2719;53.624;9.786;2022-08-21T10:41:42;22.20;99.90
5392;DHT22;2719;53.624;9.786;2022-08-21T10:44:18;22.30;99.80
5392;DHT22;2719;53.624;9.786;2022-08-21T10:46:53;22.20;99.30
5392;DHT22;2719;53.624;9.786;2022-08-21T10:49:26;22.20;98.70
5392;DHT22;2719;53.624;9.786;2022-08-21T10:52:20;22.10;98.80
5392;DHT22;2719;53.624;9.786;2022-08-21T10:54:55;22.10;98.30
5392;DHT22;2719;53.624;9.786;2022-08-21T10:57:29;22.20;97.80
5392;DHT22;2719;53.624;9.786;2022-08-21T11:00:04;22.20;98.30
5392;DHT22;2719;53.624;9.786;2022-08-21T11:02:35;22.30;98.60
5392;DHT22;2719;53.624;9.786;2022-08-21T11:05:10;22.40;99.10
5392;DHT22;2719;53.624;9.786;2022-08-21T11:07:45;22.30;97.90
5392;DHT22;2719;53.624;9.786;2022-08-21T11:10:18;22.30;97.70
5392;DHT22;2719;53.624;9.786;2022-08-21T11:12:48;22.30;97.50
5392;DHT22;2719;53.624;9.786;2022-08-21T11:15:31;22.30;97.70
5392;DHT22;2719;53.624;9.786;2022-08-21T11:18:10;22.40;97.10
5392;DHT22;2719;53.624;9.786;2022-08-21T11:20:43;22.40;97.30
5392;DHT22;2719;53.624;9.786;2022-08-21T11:23:17;22.50;98.00
5392;DHT22;2719;53.624;9.786;2022-08-21T11:25:48;22.60;97.00
5392;DHT22;2719;53.624;9.786;2022-08-21T11:28:21;22.70;96.80
5392;DHT22;2719;53.624;9.786;2022-08-21T11:30:58;22.80;96.10
5392;DHT22;2719;53.624;9.786;2022-08-21T11:33:35;22.90;96.20
5392;DHT22;2719;53.624;9.786;2022-08-21T11:36:15;23.00;96.50
5392;DHT22;2719;53.624;9.786;2022-08-21T11:38:48;23.20;97.10
5392;DHT22;2719;53.624;9.786;2022-08-21T11:41:25;23.30;98.00
5392;DHT22;2719;53.624;9.786;2022-08-21T11:44:00;23.50;97.40
5392;DHT22;2719;53.624;9.786;2022-08-21T11:46:35;23.60;96.80
5392;DHT22;2719;53.624;9.786;2022-08-21T11:49:26;23.60;96.60
5392;DHT22;2719;53.624;9.786;2022-08-21T11:52:02;23.60;95.70
5392;DHT22;2719;53.624;9.786;2022-08-21T11:54:42;23.70;96.70
5392;DHT22;2719;53.624;9.786;2022-08-21T11:57:18;23.70;96.60
5392;DHT22;2719;53.624;9.786;2022-08-21T11:59:49;23.60;95.60
5392;DHT22;2719;53.624;9.786;2022-08-21T12:02:21;23.50;95.80
5392;DHT22;2719;53.624;9.786;2022-08-21T12:04:52;23.50;94.60
5392;DHT22;2719;53.624;9.786;2022-08-21T12:07:32;23.50;95.00
5392;DHT22;2719;53.624;9.786;2022-08-21T12:09:59;23.70;95.60
5392;DHT22;2719;53.624;9.786;2022-08-21T12:12:29;23.80;94.10
5392;DHT22;2719;53.624;9.786;2022-08-21T12:15:16;23.90;94.40
5392;DHT22;2719;53.624;9.786;2022-08-21T12:17:53;23.90;94.00
5392;DHT22;2719;53.624;9.786;2022-08-21T12:20:36;24.00;95.20
5392;DHT22;2719;53.624;9.786;2022-08-21T12:23:12;24.20;94.30
5392;DHT22;2719;53.624;9.786;2022-08-21T12:25:43;24.40;93.80
5392;DHT22;2719;53.624;9.786;2022-08-21T12:28:14;24.50;93.30
5392;DHT22;2719;53.624;9.786;2022-08-21T12:30:43;24.50;94.80
5392;DHT22;2719;53.624;9.786;2022-08-21T12:33:21;24.70;93.00
5392;DHT22;2719;53.624;9.786;2022-08-21T12:35:51;24.80;92.80
5392;DHT22;2719;53.624;9.786;2022-08-21T12:38:21;24.80;92.80
5392;DHT22;2719;53.624;9.786;2022-08-21T12:40:52;24.60;93.30
5392;DHT22;2719;53.624;9.786;2022-08-21T12:43:25;24.40;92.60
5392;DHT22;2719;53.624;9.786;2022-08-21T12:45:52;24.40;93.40
5392;DHT22;2719;53.624;9.786;2022-08-21T12:48:22;24.60;93.10
5392;DHT22;2719;53.624;9.786;2022-08-21T12:50:54;24.70;92.40
5392;DHT22;2719;53.624;9.786;2022-08-21T12:53:26;24.70;92.20
5392;DHT22;2719;53.624;9.786;2022-08-21T12:55:54;24.90;91.90
5392;DHT22;2719;53.624;9.786;2022-08-21T12:58:30;25.20;92.00
5392;DHT22;2719;53.624;9.786;2022-08-21T13:01:01;25.20;91.00
5392;DHT22;2719;53.624;9.786;2022-08-21T13:03:28;25.20;90.50
5392;DHT22;2719;53.624;9.786;2022-08-21T13:05:57;25.10;91.50
5392;DHT22;2719;53.624;9.786;2022-08-21T13:08:26;24.80;91.10
5392;DHT22;2719;53.624;9.786;2022-08-21T13:10:58;24.70;91.30
5392;DHT22;2719;53.624;9.786;2022-08-21T13:13:26;24.90;91.70
5392;DHT22;2719;53.624;9.786;2022-08-21T13:15:59;24.90;91.30
5392;DHT22;2719;53.624;9.786;2022-08-21T13:18:30;24.70;90.70
5392;DHT22;2719;53.624;9.786;2022-08-21T13:21:09;24.80;91.20
5392;DHT22;2719;53.624;9.786;2022-08-21T13:23:36;25.10;90.60
5392;DHT22;2719;53.624;9.786;2022-08-21T13:26:12;25.30;90.40
5392;DHT22;2719;53.624;9.786;2022-08-21T13:28:39;25.30;89.60
5392;DHT22;2719;53.624;9.786;2022-08-21T13:31:09;25.10;89.20
5392;DHT22;2719;53.624;9.786;2022-08-21T13:33:37;25.10;90.40
5392;DHT22;2719;53.624;9.786;2022-08-21T13:36:10;25.10;90.30
5392;DHT22;2719;53.624;9.786;2022-08-21T13:38:39;25.00;90.20
5392;DHT22;2719;53.624;9.786;2022-08-21T13:41:13;25.20;90.10
5392;DHT22;2719;53.624;9.786;2022-08-21T13:43:47;25.40;90.40
5392;DHT22;2719;53.624;9.786;2022-08-21T13:46:18;25.60;88.70
5392;DHT22;2719;53.624;9.786;2022-08-21T13:48:46;25.70;90.60
5392;DHT22;2719;53.624;9.786;2022-08-21T13:51:13;25.90;89.90
5392;DHT22;2719;53.624;9.786;2022-08-21T13:53:48;26.10;87.40
5392;DHT22;2719;53.624;9.786;2022-08-21T13:56:25;26.20;88.70
5392;DHT22;2719;53.624;9.786;2022-08-21T13:58:53;26.30;87.60
5392;DHT22;2719;53.624;9.786;2022-08-21T14:01:23;26.40;85.50
5392;DHT22;2719;53.624;9.786;2022-08-21T14:03:55;26.50;87.30
5392;DHT22;2719;53.624;9.786;2022-08-21T14:06:25;26.70;87.20
5392;DHT22;2719;53.624;9.786;2022-08-21T14:08:55;26.80;88.00
5392;DHT22;2719;53.624;9.786;2022-08-21T14:11:24;26.80;86.50
5392;DHT22;2719;53.624;9.786;2022-08-21T14:13:58;27.00;87.70
5392;DHT22;2719;53.624;9.786;2022-08-21T14:16:29;27.20;90.10
5392;DHT22;2719;53.624;9.786;2022-08-21T14:19:10;27.20;85.20
5392;DHT22;2719;53.624;9.786;2022-08-21T14:21:39;27.40;89.70
5392;DHT22;2719;53.624;9.786;2022-08-21T14:24:09;27.50;85.60
5392;DHT22;2719;53.624;9.786;2022-08-21T14:26:44;27.30;83.90
5392;DHT22;2719;53.624;9.786;2022-08-21T14:29:14;27.30;85.30
5392;DHT22;2719;53.624;9.786;2022-08-21T14:31:43;27.30;83.80
5392;DHT22;2719;53.624;9.786;2022-08-21T14:34:15;27.30;84.30
5392;DHT22;2719;53.624;9.786;2022-08-21T14:36:42;27.40;86.10
5392;DHT22;2719;53.624;9.786;2022-08-21T14:39:09;27.40;84.50
5392;DHT22;2719;53.624;9.786;2022-08-21T14:41:36;27.60;84.90
5392;DHT22;2719;53.624;9.786;2022-08-21T14:44:04;27.60;83.20
5392;DHT22;2719;53.624;9.786;2022-08-21T14:46:31;27.40;82.60
5392;DHT22;2719;53.624;9.786;2022-08-21T14:49:02;27.50;86.90
5392;DHT22;2719;53.624;9.786;2022-08-21T14:51:28;27.50;83.40
5392;DHT22;2719;53.624;9.786;2022-08-21T14:53:55;27.70;82.70
5392;DHT22;2719;53.624;9.786;2022-08-21T14:56:22;27.70;82.30
5392;DHT22;2719;53.624;9.786;2022-08-21T14:58:51;27.60;81.80
5392;DHT22;2719;53.624;9.786;2022-08-21T15:01:19;27.60;81.80
5392;DHT22;2719;53.624;9.786;2022-08-21T15:03:47;27.40;82.60
5392;DHT22;2719;53.624;9.786;2022-08-21T15:06:16;27.40;83.40
5392;DHT22;2719;53.624;9.786;2022-08-21T15:08:43;27.50;82.30
5392;DHT22;2719;53.624;9.786;2022-08-21T15:11:12;27.50;82.80
5392;DHT22;2719;53.624;9.786;2022-08-21T15:13:41;27.50;82.40
5392;DHT22;2719;53.624;9.786;2022-08-21T15:16:09;27.30;82.70
5392;DHT22;2719;53.624;9.786;2022-08-21T15:18:37;27.40;82.90
5392;DHT22;2719;53.624;9.786;2022-08-21T15:21:04;27.30;82.80
5392;DHT22;2719;53.624;9.786;2022-08-21T15:23:32;27.30;84.40
5392;DHT22;2719;53.624;9.786;2022-08-21T15:25:58;27.30;83.40
5392;DHT22;2719;53.624;9.786;2022-08-21T15:28:25;27.20;81.30
5392;DHT22;2719;53.624;9.786;2022-08-21T15:30:52;27.20;81.70
5392;DHT22;2719;53.624;9.786;2022-08-21T15:33:19;27.30;81.00
5392;DHT22;2719;53.624;9.786;2022-08-21T15:35:47;27.30;79.50
5392;DHT22;2719;53.624;9.786;2022-08-21T15:38:14;27.30;81.80
5392;DHT22;2719;53.624;9.786;2022-08-21T15:40:43;27.30;82.30
5392;DHT22;2719;53.624;9.786;2022-08-21T15:43:19;27.50;82.70
5392;DHT22;2719;53.624;9.786;2022-08-21T15:45:47;27.50;83.00
5392;DHT22;2719;53.624;9.786;2022-08-21T15:48:13;27.60;84.30
5392;DHT22;2719;53.624;9.786;2022-08-21T15:50:40;27.60;83.90
5392;DHT22;2719;53.624;9.786;2022-08-21T15:53:07;27.60;82.80
5392;DHT22;2719;53.624;9.786;2022-08-21T15:55:34;27.60;81.00
5392;DHT22;2719;53.624;9.786;2022-08-21T15:58:03;27.50;80.50
5392;DHT22;2719;53.624;9.786;2022-08-21T16:00:31;27.50;83.50
5392;DHT22;2719;53.624;9.786;2022-08-21T16:02:59;27.40;83.80
5392;DHT22;2719;53.624;9.786;2022-08-21T16:05:26;27.40;81.50
5392;DHT22;2719;53.624;9.786;2022-08-21T16:07:53;27.50;84.00
5392;DHT22;2719;53.624;9.786;2022-08-21T16:10:22;27.40;84.50
5392;DHT22;2719;53.624;9.786;2022-08-21T16:12:53;27.20;83.00
5392;DHT22;2719;53.624;9.786;2022-08-21T16:15:22;27.10;83.10
5392;DHT22;2719;53.624;9.786;2022-08-21T16:17:49;27.10;84.20